sensor_id;sensor_type;location;lat;lon;timestamp;temperature;humidity
45104;DHT22;30865;51.288;4.572;2023-08-20T00:01:15;23.20;99.90
45104;DHT22;30865;51.288;4.572;2023-08-20T00:03:42;23.20;99.90
45104;DHT22;30865;51.288;4.572;2023-08-20T00:06:09;23.20;99.90
45104;DHT22;30865;51.288;4.572;2023-08-20T00:08:34;23.20;99.90
45104;DHT22;30865;51.288;4.572;2023-08-20T00:11:01;23.10;99.90
45104;DHT22;30865;51.288;4.572;2023-08-20T00:13:26;23.10;99.90
45104;DHT22;30865;51.288;4.572;2023-08-20T00:15:53;23.00;99.90
45104;DHT22;30865;51.288;4.572;2023-08-20T00:18:22;23.00;99.90
45104;DHT22;30865;51.288;4.572;2023-08-20T00:20:48;22.90;99.90
45104;DHT22;30865;51.288;4.572;2023-08-20T00:23:13;23.00;99.90
45104;DHT22;30865;51.288;4.572;2023-08-20T00:25:40;23.00;99.90
45104;DHT22;30865;51.288;4.572;2023-08-20T00:28:05;23.00;99.90
45104;DHT22;30865;51.288;4.572;2023-08-20T00:30:31;23.00;99.90
45104;DHT22;30865;51.288;4.572;2023-08-20T00:33:00;23.00;99.90
45104;DHT22;30865;51.288;4.572;2023-08-20T00:35:25;23.10;99.90
45104;DHT22;30865;51.288;4.572;2023-08-20T00:37:50;23.10;99.90
45104;DHT22;30865;51.288;4.572;2023-08-20T00:40:16;23.00;99.90
45104;DHT22;30865;51.288;4.572;2023-08-20T00:42:42;23.10;99.90
45104;DHT22;30865;51.288;4.572;2023-08-20T00:45:07;23.00;99.90
45104;DHT22;30865;51.288;4.572;2023-08-20T00:47:34;23.00;99.90
45104;DHT22;30865;51.288;4.572;2023-08-20T00:50:01;22.90;99.90
45104;DHT22;30865;51.288;4.572;2023-08-20T00:52:29;23.00;99.90
45104;DHT22;30865;51.288;4.572;2023-08-20T00:54:55;22.90;99.90
45104;DHT22;30865;51.288;4.572;2023-08-20T00:57:22;22.90;99.90
45104;DHT22;30865;51.288;4.572;2023-08-20T00:59:51;22.90;99.90
45104;DHT22;30865;51.288;4.572;2023-08-20T01:02:18;22.90;99.90
45104;DHT22;30865;51.288;4.572;2023-08-20T01:04:46;22.80;99.90
45104;DHT22;30865;51.288;4.572;2023-08-20T01:12:34;22.70;99.90
45104;DHT22;30865;51.288;4.572;2023-08-20T01:14:59;22.60;99.90
45104;DHT22;30865;51.288;4.572;2023-08-20T01:17:25;22.60;99.90
45104;DHT22;30865;51.288;4.572;2023-08-20T01:19:51;22.60;99.90
45104;DHT22;30865;51.288;4.572;2023-08-20T01:28:15;22.60;99.90
45104;DHT22;30865;51.288;4.572;2023-08-20T01:30:42;22.50;99.90
45104;DHT22;30865;51.288;4.572;2023-08-20T01:33:09;22.50;99.90
45104;DHT22;30865;51.288;4.572;2023-08-20T01:35:36;22.50;99.90
45104;DHT22;30865;51.288;4.572;2023-08-20T01:38:02;22.50;99.90
45104;DHT22;30865;51.288;4.572;2023-08-20T01:40:28;22.40;99.90
45104;DHT22;30865;51.288;4.572;2023-08-20T01:42:53;22.30;99.90
45104;DHT22;30865;51.288;4.572;2023-08-20T01:45:19;22.40;99.90
45104;DHT22;30865;51.288;4.572;2023-08-20T01:47:44;22.40;99.90
45104;DHT22;30865;51.288;4.572;2023-08-20T01:50:10;22.40;99.90
45104;DHT22;30865;51.288;4.572;2023-08-20T01:52:36;22.30;99.90
45104;DHT22;30865;51.288;4.572;2023-08-20T01:55:02;22.30;99.90
45104;DHT22;30865;51.288;4.572;2023-08-20T01:57:27;22.30;99.90
45104;DHT22;30865;51.288;4.572;2023-08-20T01:59:53;22.30;99.90
45104;DHT22;30865;51.288;4.572;2023-08-20T02:02:19;22.30;99.90
45104;DHT22;30865;51.288;4.572;2023-08-20T02:04:44;22.30;99.90
45104;DHT22;30865;51.288;4.572;2023-08-20T02:07:09;22.30;99.90
45104;DHT22;30865;51.288;4.572;2023-08-20T02:09:35;22.20;99.90
45104;DHT22;30865;51.288;4.572;2023-08-20T02:12:00;22.20;99.90
45104;DHT22;30865;51.288;4.572;2023-08-20T02:14:26;22.10;99.90
45104;DHT22;30865;51.288;4.572;2023-08-20T02:16:53;22.00;99.90
45104;DHT22;30865;51.288;4.572;2023-08-20T02:19:19;22.10;99.90
45104;DHT22;30865;51.288;4.572;2023-08-20T02:21:44;22.10;99.90
45104;DHT22;30865;51.288;4.572;2023-08-20T02:24:09;21.90;99.90
45104;DHT22;30865;51.288;4.572;2023-08-20T02:26:35;21.90;99.90
45104;DHT22;30865;51.288;4.572;2023-08-20T02:29:00;21.90;99.90
45104;DHT22;30865;51.288;4.572;2023-08-20T02:31:26;22.00;99.90
45104;DHT22;30865;51.288;4.572;2023-08-20T02:33:51;22.00;99.90
45104;DHT22;30865;51.288;4.572;2023-08-20T02:36:17;22.00;99.90
45104;DHT22;30865;51.288;4.572;2023-08-20T02:38:44;22.00;99.90
45104;DHT22;30865;51.288;4.572;2023-08-20T02:41:09;21.90;99.90
45104;DHT22;30865;51.288;4.572;2023-08-20T02:43:35;21.90;99.90
45104;DHT22;30865;51.288;4.572;2023-08-20T02:46:00;21.90;99.90
45104;DHT22;30865;51.288;4.572;2023-08-20T02:48:26;21.80;99.90
45104;DHT22;30865;51.288;4.572;2023-08-20T02:50:55;21.80;99.90
45104;DHT22;30865;51.288;4.572;2023-08-20T02:53:21;21.80;99.90
45104;DHT22;30865;51.288;4.572;2023-08-20T02:55:47;21.80;99.90
45104;DHT22;30865;51.288;4.572;2023-08-20T02:58:12;21.80;99.90
45104;DHT22;30865;51.288;4.572;2023-08-20T03:00:38;21.80;99.90
45104;DHT22;30865;51.288;4.572;2023-08-20T03:03:04;21.70;99.90
45104;DHT22;30865;51.288;4.572;2023-08-20T03:05:33;21.70;99.90
45104;DHT22;30865;51.288;4.572;2023-08-20T03:07:58;21.70;99.90
45104;DHT22;30865;51.288;4.572;2023-08-20T03:10:24;21.70;99.90
45104;DHT22;30865;51.288;4.572;2023-08-20T03:12:49;21.70;99.90
45104;DHT22;30865;51.288;4.572;2023-08-20T03:15:15;21.60;99.90
45104;DHT22;30865;51.288;4.572;2023-08-20T03:17:40;21.50;99.90
45104;DHT22;30865;51.288;4.572;2023-08-20T03:20:06;21.50;99.90
45104;DHT22;30865;51.288;4.572;2023-08-20T03:22:32;21.40;99.90
45104;DHT22;30865;51.288;4.572;2023-08-20T03:24:58;21.50;99.90
45104;DHT22;30865;51.288;4.572;2023-08-20T03:27:24;21.50;99.90
45104;DHT22;30865;51.288;4.572;2023-08-20T03:29:49;21.50;99.90
45104;DHT22;30865;51.288;4.572;2023-08-20T03:32:15;21.40;99.90
45104;DHT22;30865;51.288;4.572;2023-08-20T03:34:41;21.40;99.90
45104;DHT22;30865;51.288;4.572;2023-08-20T03:37:09;21.40;99.90
45104;DHT22;30865;51.288;4.572;2023-08-20T03:39:34;21.40;99.90
45104;DHT22;30865;51.288;4.572;2023-08-20T03:42:00;21.40;99.90
45104;DHT22;30865;51.288;4.572;2023-08-20T03:44:25;21.40;99.90
45104;DHT22;30865;51.288;4.572;2023-08-20T03:46:51;21.40;99.90
45104;DHT22;30865;51.288;4.572;2023-08-20T03:49:17;21.40;99.90
45104;DHT22;30865;51.288;4.572;2023-08-20T03:51:42;21.40;99.90
45104;DHT22;30865;51.288;4.572;2023-08-20T03:54:10;21.30;99.90
45104;DHT22;30865;51.288;4.572;2023-08-20T03:56:36;21.30;99.90
45104;DHT22;30865;51.288;4.572;2023-08-20T03:59:02;21.30;99.90
45104;DHT22;30865;51.288;4.572;2023-08-20T04:01:28;21.20;99.90
45104;DHT22;30865;51.288;4.572;2023-08-20T04:03:53;21.10;99.90
45104;DHT22;30865;51.288;4.572;2023-08-20T04:06:18;21.10;99.90
45104;DHT22;30865;51.288;4.572;2023-08-20T04:08:44;21.10;99.90
45104;DHT22;30865;51.288;4.572;2023-08-20T04:11:12;21.10;99.90
45104;DHT22;30865;51.288;4.572;2023-08-20T04:13:38;21.10;99.90
45104;DHT22;30865;51.288;4.572;2023-08-20T04:16:05;21.10;99.90
45104;DHT22;30865;51.288;4.572;2023-08-20T04:18:30;21.10;99.90
45104;DHT22;30865;51.288;4.572;2023-08-20T04:20:56;21.10;99.90
45104;DHT22;30865;51.288;4.572;2023-08-20T04:23:22;21.20;99.90
45104;DHT22;30865;51.288;4.572;2023-08-20T04:25:48;21.10;99.90
45104;DHT22;30865;51.288;4.572;2023-08-20T04:28:14;21.10;99.90
45104;DHT22;30865;51.288;4.572;2023-08-20T04:30:39;21.00;99.90
45104;DHT22;30865;51.288;4.572;2023-08-20T04:33:05;21.00;99.90
45104;DHT22;30865;51.288;4.572;2023-08-20T04:35:31;21.00;99.90
45104;DHT22;30865;51.288;4.572;2023-08-20T04:37:57;21.00;99.90
45104;DHT22;30865;51.288;4.572;2023-08-20T04:40:22;21.00;99.90
45104;DHT22;30865;51.288;4.572;2023-08-20T04:42:48;20.90;99.90
45104;DHT22;30865;51.288;4.572;2023-08-20T04:45:14;20.90;99.90
45104;DHT22;30865;51.288;4.572;2023-08-20T04:47:42;20.90;99.90
45104;DHT22;30865;51.288;4.572;2023-08-20T04:50:08;20.90;99.90
45104;DHT22;30865;51.288;4.572;2023-08-20T04:52:34;20.90;99.90
45104;DHT22;30865;51.288;4.572;2023-08-20T04:55:00;20.90;99.90
45104;DHT22;30865;51.288;4.572;2023-08-20T04:57:25;20.90;99.90
45104;DHT22;30865;51.288;4.572;2023-08-20T04:59:51;20.90;99.90
45104;DHT22;30865;51.288;4.572;2023-08-20T05:02:17;20.90;99.90
45104;DHT22;30865;51.288;4.572;2023-08-20T05:04:42;20.90;99.90
45104;DHT22;30865;51.288;4.572;2023-08-20T05:07:08;20.90;99.90
45104;DHT22;30865;51.288;4.572;2023-08-20T05:09:33;21.00;99.90
45104;DHT22;30865;51.288;4.572;2023-08-20T05:11:59;20.90;99.90
45104;DHT22;30865;51.288;4.572;2023-08-20T05:14:24;20.90;99.90
45104;DHT22;30865;51.288;4.572;2023-08-20T05:16:50;20.80;99.90
45104;DHT22;30865;51.288;4.572;2023-08-20T05:19:15;20.80;99.90
45104;DHT22;30865;51.288;4.572;2023-08-20T05:21:41;21.00;99.90
45104;DHT22;30865;51.288;4.572;2023-08-20T05:24:06;21.00;99.90
45104;DHT22;30865;51.288;4.572;2023-08-20T05:26:32;21.10;99.90
45104;DHT22;30865;51.288;4.572;2023-08-20T05:28:57;21.10;99.90
45104;DHT22;30865;51.288;4.572;2023-08-20T05:31:23;21.10;99.90
45104;DHT22;30865;51.288;4.572;2023-08-20T05:33:48;21.10;99.90
45104;DHT22;30865;51.288;4.572;2023-08-20T05:36:14;21.10;99.90
45104;DHT22;30865;51.288;4.572;2023-08-20T05:38:40;21.20;99.90
45104;DHT22;30865;51.288;4.572;2023-08-20T05:41:07;21.20;99.90
45104;DHT22;30865;51.288;4.572;2023-08-20T05:43:33;21.30;99.90
45104;DHT22;30865;51.288;4.572;2023-08-20T05:46:02;21.50;99.90
45104;DHT22;30865;51.288;4.572;2023-08-20T05:48:28;21.60;99.90
45104;DHT22;30865;51.288;4.572;2023-08-20T05:50:53;21.70;99.90
45104;DHT22;30865;51.288;4.572;2023-08-20T05:53:19;21.60;99.90
45104;DHT22;30865;51.288;4.572;2023-08-20T05:55:44;21.70;99.90
45104;DHT22;30865;51.288;4.572;2023-08-20T05:58:10;21.70;99.90
45104;DHT22;30865;51.288;4.572;2023-08-20T06:00:36;21.80;99.90
45104;DHT22;30865;51.288;4.572;2023-08-20T06:03:02;21.90;99.90
45104;DHT22;30865;51.288;4.572;2023-08-20T06:05:27;21.90;99.90
45104;DHT22;30865;51.288;4.572;2023-08-20T06:07:53;22.10;99.90
45104;DHT22;30865;51.288;4.572;2023-08-20T06:10:18;22.10;99.90
45104;DHT22;30865;51.288;4.572;2023-08-20T06:12:44;22.20;99.90
45104;DHT22;30865;51.288;4.572;2023-08-20T06:15:09;22.50;99.90
45104;DHT22;30865;51.288;4.572;2023-08-20T06:17:35;22.60;99.90
45104;DHT22;30865;51.288;4.572;2023-08-20T06:20:00;22.60;99.90
45104;DHT22;30865;51.288;4.572;2023-08-20T06:22:26;22.70;99.90
45104;DHT22;30865;51.288;4.572;2023-08-20T06:24:51;22.70;99.90
45104;DHT22;30865;51.288;4.572;2023-08-20T06:27:17;22.90;99.90
45104;DHT22;30865;51.288;4.572;2023-08-20T06:29:43;23.30;99.90
45104;DHT22;30865;51.288;4.572;2023-08-20T06:32:08;23.40;99.90
45104;DHT22;30865;51.288;4.572;2023-08-20T06:34:34;23.70;99.90
45104;DHT22;30865;51.288;4.572;2023-08-20T06:37:00;23.90;99.90
45104;DHT22;30865;51.288;4.572;2023-08-20T06:39:26;24.00;99.90
45104;DHT22;30865;51.288;4.572;2023-08-20T06:41:51;24.00;99.90
45104;DHT22;30865;51.288;4.572;2023-08-20T06:44:17;24.30;99.90
45104;DHT22;30865;51.288;4.572;2023-08-20T06:46:42;24.30;99.90
45104;DHT22;30865;51.288;4.572;2023-08-20T06:49:08;24.30;99.90
45104;DHT22;30865;51.288;4.572;2023-08-20T06:51:33;24.40;99.90
45104;DHT22;30865;51.288;4.572;2023-08-20T06:53:59;24.50;99.90
45104;DHT22;30865;51.288;4.572;2023-08-20T06:56:27;24.70;99.90
45104;DHT22;30865;51.288;4.572;2023-08-20T06:58:52;24.90;99.90
45104;DHT22;30865;51.288;4.572;2023-08-20T07:01:19;25.20;99.90
45104;DHT22;30865;51.288;4.572;2023-08-20T07:03:45;25.30;99.90
45104;DHT22;30865;51.288;4.572;2023-08-20T07:06:11;25.50;99.90
45104;DHT22;30865;51.288;4.572;2023-08-20T07:08:37;25.60;99.90
45104;DHT22;30865;51.288;4.572;2023-08-20T07:11:05;25.70;99.90
45104;DHT22;30865;51.288;4.572;2023-08-20T07:13:30;25.60;99.90
45104;DHT22;30865;51.288;4.572;2023-08-20T07:15:56;25.60;99.90
45104;DHT22;30865;51.288;4.572;2023-08-20T07:18:22;26.10;99.90
45104;DHT22;30865;51.288;4.572;2023-08-20T07:20:47;26.60;99.90
45104;DHT22;30865;51.288;4.572;2023-08-20T07:23:13;26.70;99.90
45104;DHT22;30865;51.288;4.572;2023-08-20T07:25:40;26.20;99.90
45104;DHT22;30865;51.288;4.572;2023-08-20T07:28:06;26.00;99.90
45104;DHT22;30865;51.288;4.572;2023-08-20T07:30:32;25.90;99.90
45104;DHT22;30865;51.288;4.572;2023-08-20T07:32:58;26.00;99.90
45104;DHT22;30865;51.288;4.572;2023-08-20T07:35:24;26.00;99.90
45104;DHT22;30865;51.288;4.572;2023-08-20T07:37:50;26.50;99.90
45104;DHT22;30865;51.288;4.572;2023-08-20T07:40:15;26.50;99.90
45104;DHT22;30865;51.288;4.572;2023-08-20T07:42:41;26.70;99.90
45104;DHT22;30865;51.288;4.572;2023-08-20T07:45:07;26.90;99.90
45104;DHT22;30865;51.288;4.572;2023-08-20T07:47:34;27.10;99.90
45104;DHT22;30865;51.288;4.572;2023-08-20T07:49:59;27.10;99.90
45104;DHT22;30865;51.288;4.572;2023-08-20T07:52:25;27.50;99.90
45104;DHT22;30865;51.288;4.572;2023-08-20T07:54:51;27.60;99.90
45104;DHT22;30865;51.288;4.572;2023-08-20T07:57:16;27.60;99.90
45104;DHT22;30865;51.288;4.572;2023-08-20T07:59:45;27.60;99.90
45104;DHT22;30865;51.288;4.572;2023-08-20T08:02:10;27.50;99.90
45104;DHT22;30865;51.288;4.572;2023-08-20T08:04:36;27.40;99.90
45104;DHT22;30865;51.288;4.572;2023-08-20T08:07:02;27.10;99.90
45104;DHT22;30865;51.288;4.572;2023-08-20T08:09:31;27.10;99.90
45104;DHT22;30865;51.288;4.572;2023-08-20T08:11:58;27.70;99.90
45104;DHT22;30865;51.288;4.572;2023-08-20T08:14:23;27.90;99.90
45104;DHT22;30865;51.288;4.572;2023-08-20T08:16:49;28.20;99.90
45104;DHT22;30865;51.288;4.572;2023-08-20T08:19:18;28.10;99.90
45104;DHT22;30865;51.288;4.572;2023-08-20T08:21:45;28.30;99.90
45104;DHT22;30865;51.288;4.572;2023-08-20T08:24:11;28.00;99.90
45104;DHT22;30865;51.288;4.572;2023-08-20T08:26:37;28.50;99.90
45104;DHT22;30865;51.288;4.572;2023-08-20T08:29:03;28.40;99.90
45104;DHT22;30865;51.288;4.572;2023-08-20T08:31:29;28.10;99.90
45104;DHT22;30865;51.288;4.572;2023-08-20T08:33:54;28.40;99.90
45104;DHT22;30865;51.288;4.572;2023-08-20T08:36:20;28.10;99.90
45104;DHT22;30865;51.288;4.572;2023-08-20T08:38:45;27.80;99.90
45104;DHT22;30865;51.288;4.572;2023-08-20T08:41:15;28.00;99.90
45104;DHT22;30865;51.288;4.572;2023-08-20T08:43:41;27.90;99.90
45104;DHT22;30865;51.288;4.572;2023-08-20T08:46:08;28.20;99.90
45104;DHT22;30865;51.288;4.572;2023-08-20T08:48:37;28.30;99.90
45104;DHT22;30865;51.288;4.572;2023-08-20T08:51:05;28.40;99.90
45104;DHT22;30865;51.288;4.572;2023-08-20T08:53:32;28.50;99.90
45104;DHT22;30865;51.288;4.572;2023-08-20T08:56:02;28.50;99.90
45104;DHT22;30865;51.288;4.572;2023-08-20T08:58:28;28.20;99.90
45104;DHT22;30865;51.288;4.572;2023-08-20T09:00:54;28.70;99.90
45104;DHT22;30865;51.288;4.572;2023-08-20T09:03:19;28.60;99.90
45104;DHT22;30865;51.288;4.572;2023-08-20T09:05:50;28.70;99.90
45104;DHT22;30865;51.288;4.572;2023-08-20T09:08:26;28.80;99.90
45104;DHT22;30865;51.288;4.572;2023-08-20T09:10:54;29.10;99.90
45104;DHT22;30865;51.288;4.572;2023-08-20T09:13:23;28.80;99.90
45104;DHT22;30865;51.288;4.572;2023-08-20T09:15:53;29.10;99.90
45104;DHT22;30865;51.288;4.572;2023-08-20T09:18:19;29.20;99.90
45104;DHT22;30865;51.288;4.572;2023-08-20T09:20:47;28.70;99.90
45104;DHT22;30865;51.288;4.572;2023-08-20T09:23:16;29.10;99.90
45104;DHT22;30865;51.288;4.572;2023-08-20T09:25:43;29.50;99.90
45104;DHT22;30865;51.288;4.572;2023-08-20T09:28:09;29.70;99.90
45104;DHT22;30865;51.288;4.572;2023-08-20T09:30:34;29.60;99.90
45104;DHT22;30865;51.288;4.572;2023-08-20T09:33:07;29.60;99.90
45104;DHT22;30865;51.288;4.572;2023-08-20T09:35:33;29.20;99.90
45104;DHT22;30865;51.288;4.572;2023-08-20T09:38:00;29.60;99.90
45104;DHT22;30865;51.288;4.572;2023-08-20T09:40:32;29.70;99.90
45104;DHT22;30865;51.288;4.572;2023-08-20T09:42:59;29.50;99.90
45104;DHT22;30865;51.288;4.572;2023-08-20T09:45:28;29.70;99.90
45104;DHT22;30865;51.288;4.572;2023-08-20T09:48:01;29.50;99.90
45104;DHT22;30865;51.288;4.572;2023-08-20T09:50:32;29.50;99.90
45104;DHT22;30865;51.288;4.572;2023-08-20T09:53:26;29.60;99.90
45104;DHT22;30865;51.288;4.572;2023-08-20T09:55:52;30.00;99.90
45104;DHT22;30865;51.288;4.572;2023-08-20T09:58:23;29.60;99.90
45104;DHT22;30865;51.288;4.572;2023-08-20T10:00:51;29.60;99.90
45104;DHT22;30865;51.288;4.572;2023-08-20T10:03:18;29.90;99.90
45104;DHT22;30865;51.288;4.572;2023-08-20T10:05:49;29.90;99.90
45104;DHT22;30865;51.288;4.572;2023-08-20T10:08:15;30.00;99.90
45104;DHT22;30865;51.288;4.572;2023-08-20T10:10:41;30.40;99.90
45104;DHT22;30865;51.288;4.572;2023-08-20T10:13:07;30.30;99.90
45104;DHT22;30865;51.288;4.572;2023-08-20T10:15:33;30.20;99.90
45104;DHT22;30865;51.288;4.572;2023-08-20T10:18:01;30.00;99.90
45104;DHT22;30865;51.288;4.572;2023-08-20T10:20:30;30.20;99.90
45104;DHT22;30865;51.288;4.572;2023-08-20T10:23:03;30.40;99.90
45104;DHT22;30865;51.288;4.572;2023-08-20T10:25:28;30.60;99.90
45104;DHT22;30865;51.288;4.572;2023-08-20T10:27:54;30.70;99.90
45104;DHT22;30865;51.288;4.572;2023-08-20T10:30:25;30.90;99.90
45104;DHT22;30865;51.288;4.572;2023-08-20T10:32:52;31.20;99.90
45104;DHT22;30865;51.288;4.572;2023-08-20T10:35:23;31.20;99.90
45104;DHT22;30865;51.288;4.572;2023-08-20T10:43:37;31.20;99.90
45104;DHT22;30865;51.288;4.572;2023-08-20T10:48:41;31.50;99.90
45104;DHT22;30865;51.288;4.572;2023-08-20T10:51:09;31.10;99.90
45104;DHT22;30865;51.288;4.572;2023-08-20T10:53:35;31.20;99.90
45104;DHT22;30865;51.288;4.572;2023-08-20T10:56:16;31.40;99.90
45104;DHT22;30865;51.288;4.572;2023-08-20T10:58:45;31.50;99.90
45104;DHT22;30865;51.288;4.572;2023-08-20T11:01:20;31.40;99.90
45104;DHT22;30865;51.288;4.572;2023-08-20T11:03:47;31.40;99.90
45104;DHT22;30865;51.288;4.572;2023-08-20T11:06:14;31.40;99.90
45104;DHT22;30865;51.288;4.572;2023-08-20T11:08:41;31.90;99.90
45104;DHT22;30865;51.288;4.572;2023-08-20T11:11:07;31.90;99.90
45104;DHT22;30865;51.288;4.572;2023-08-20T11:13:34;31.90;99.90
45104;DHT22;30865;51.288;4.572;2023-08-20T11:16:02;31.50;99.90
45104;DHT22;30865;51.288;4.572;2023-08-20T11:18:28;31.70;99.90
45104;DHT22;30865;51.288;4.572;2023-08-20T11:20:54;31.70;99.90
45104;DHT22;30865;51.288;4.572;2023-08-20T11:23:21;32.00;99.90
45104;DHT22;30865;51.288;4.572;2023-08-20T11:25:47;32.00;99.90
45104;DHT22;30865;51.288;4.572;2023-08-20T11:28:12;31.50;99.90
45104;DHT22;30865;51.288;4.572;2023-08-20T11:30:38;31.90;99.90
45104;DHT22;30865;51.288;4.572;2023-08-20T11:33:04;31.70;99.90
45104;DHT22;30865;51.288;4.572;2023-08-20T11:35:31;31.60;99.90
45104;DHT22;30865;51.288;4.572;2023-08-20T11:37:57;31.50;99.90
45104;DHT22;30865;51.288;4.572;2023-08-20T11:40:23;31.90;99.90
45104;DHT22;30865;51.288;4.572;2023-08-20T11:42:49;32.30;99.90
45104;DHT22;30865;51.288;4.572;2023-08-20T11:45:14;32.30;99.30
45104;DHT22;30865;51.288;4.572;2023-08-20T11:47:41;32.40;99.10
45104;DHT22;30865;51.288;4.572;2023-08-20T11:50:07;32.30;99.10
45104;DHT22;30865;51.288;4.572;2023-08-20T11:52:34;32.60;98.00
45104;DHT22;30865;51.288;4.572;2023-08-20T11:55:00;32.30;98.20
45104;DHT22;30865;51.288;4.572;2023-08-20T11:57:27;32.20;98.10
45104;DHT22;30865;51.288;4.572;2023-08-20T11:59:53;32.30;97.90
45104;DHT22;30865;51.288;4.572;2023-08-20T12:02:26;32.00;98.10
45104;DHT22;30865;51.288;4.572;2023-08-20T12:04:55;32.20;98.00
45104;DHT22;30865;51.288;4.572;2023-08-20T12:07:25;32.40;98.00
45104;DHT22;30865;51.288;4.572;2023-08-20T12:09:50;32.50;97.70
45104;DHT22;30865;51.288;4.572;2023-08-20T12:12:19;32.40;97.70
45104;DHT22;30865;51.288;4.572;2023-08-20T12:14:45;32.80;97.30
45104;DHT22;30865;51.288;4.572;2023-08-20T12:17:10;32.90;96.60
45104;DHT22;30865;51.288;4.572;2023-08-20T12:19:36;32.60;96.30
45104;DHT22;30865;51.288;4.572;2023-08-20T12:22:04;32.30;95.90
45104;DHT22;30865;51.288;4.572;2023-08-20T12:24:30;32.30;96.20
45104;DHT22;30865;51.288;4.572;2023-08-20T12:26:55;32.40;96.50
45104;DHT22;30865;51.288;4.572;2023-08-20T12:29:21;32.70;95.50
45104;DHT22;30865;51.288;4.572;2023-08-20T12:31:47;32.90;94.30
45104;DHT22;30865;51.288;4.572;2023-08-20T12:34:12;32.90;93.90
45104;DHT22;30865;51.288;4.572;2023-08-20T12:36:38;32.90;93.70
45104;DHT22;30865;51.288;4.572;2023-08-20T12:39:04;33.00;93.40
45104;DHT22;30865;51.288;4.572;2023-08-20T12:41:30;33.30;92.20
45104;DHT22;30865;51.288;4.572;2023-08-20T12:43:56;33.30;92.20
45104;DHT22;30865;51.288;4.572;2023-08-20T12:46:24;33.60;91.20
45104;DHT22;30865;51.288;4.572;2023-08-20T12:48:49;33.40;91.30
45104;DHT22;30865;51.288;4.572;2023-08-20T12:51:16;33.30;90.30
45104;DHT22;30865;51.288;4.572;2023-08-20T12:53:45;33.50;88.50
45104;DHT22;30865;51.288;4.572;2023-08-20T12:56:11;33.50;89.20
45104;DHT22;30865;51.288;4.572;2023-08-20T12:58:37;33.90;89.00
45104;DHT22;30865;51.288;4.572;2023-08-20T13:01:03;33.40;88.20
45104;DHT22;30865;51.288;4.572;2023-08-20T13:03:29;33.50;87.40
45104;DHT22;30865;51.288;4.572;2023-08-20T13:05:54;33.20;88.10
45104;DHT22;30865;51.288;4.572;2023-08-20T13:08:23;33.20;88.30
45104;DHT22;30865;51.288;4.572;2023-08-20T13:10:58;33.00;88.10
45104;DHT22;30865;51.288;4.572;2023-08-20T13:13:25;32.90;87.80
45104;DHT22;30865;51.288;4.572;2023-08-20T13:15:52;33.20;87.10
45104;DHT22;30865;51.288;4.572;2023-08-20T13:18:19;33.30;86.50
45104;DHT22;30865;51.288;4.572;2023-08-20T13:20:44;33.60;85.10
45104;DHT22;30865;51.288;4.572;2023-08-20T13:23:10;33.70;84.90
45104;DHT22;30865;51.288;4.572;2023-08-20T13:25:36;33.60;84.00
45104;DHT22;30865;51.288;4.572;2023-08-20T13:28:01;33.60;84.00
45104;DHT22;30865;51.288;4.572;2023-08-20T13:30:27;34.00;82.50
45104;DHT22;30865;51.288;4.572;2023-08-20T13:32:52;34.00;82.30
45104;DHT22;30865;51.288;4.572;2023-08-20T13:35:18;34.00;83.70
45104;DHT22;30865;51.288;4.572;2023-08-20T13:37:44;34.00;82.00
45104;DHT22;30865;51.288;4.572;2023-08-20T13:40:11;34.00;81.80
45104;DHT22;30865;51.288;4.572;2023-08-20T13:42:36;33.80;81.00
45104;DHT22;30865;51.288;4.572;2023-08-20T13:45:02;34.00;79.20
45104;DHT22;30865;51.288;4.572;2023-08-20T13:47:29;34.00;79.00
45104;DHT22;30865;51.288;4.572;2023-08-20T13:49:54;34.10;78.70
45104;DHT22;30865;51.288;4.572;2023-08-20T13:52:20;34.00;76.70
45104;DHT22;30865;51.288;4.572;2023-08-20T13:54:45;33.90;77.80
45104;DHT22;30865;51.288;4.572;2023-08-20T13:57:11;34.20;77.80
45104;DHT22;30865;51.288;4.572;2023-08-20T13:59:36;34.50;77.10
45104;DHT22;30865;51.288;4.572;2023-08-20T14:02:02;34.60;75.50
45104;DHT22;30865;51.288;4.572;2023-08-20T14:04:28;34.50;74.40
45104;DHT22;30865;51.288;4.572;2023-08-20T14:06:53;34.40;74.20
45104;DHT22;30865;51.288;4.572;2023-08-20T14:09:19;34.70;73.50
45104;DHT22;30865;51.288;4.572;2023-08-20T14:11:45;34.60;73.20
45104;DHT22;30865;51.288;4.572;2023-08-20T14:14:11;34.40;71.90
45104;DHT22;30865;51.288;4.572;2023-08-20T14:16:37;34.20;72.40
45104;DHT22;30865;51.288;4.572;2023-08-20T14:19:02;34.60;71.70
45104;DHT22;30865;51.288;4.572;2023-08-20T14:21:28;34.90;70.40
45104;DHT22;30865;51.288;4.572;2023-08-20T14:23:53;34.70;70.90
45104;DHT22;30865;51.288;4.572;2023-08-20T14:26:19;34.50;70.60
45104;DHT22;30865;51.288;4.572;2023-08-20T14:28:45;34.60;71.70
45104;DHT22;30865;51.288;4.572;2023-08-20T14:31:10;34.40;71.80
45104;DHT22;30865;51.288;4.572;2023-08-20T14:33:36;34.40;71.30
45104;DHT22;30865;51.288;4.572;2023-08-20T14:36:02;34.90;70.60
45104;DHT22;30865;51.288;4.572;2023-08-20T14:38:30;35.10;71.10
45104;DHT22;30865;51.288;4.572;2023-08-20T14:41:00;35.10;71.10
45104;DHT22;30865;51.288;4.572;2023-08-20T14:43:26;35.40;70.70
45104;DHT22;30865;51.288;4.572;2023-08-20T14:45:52;35.10;74.10
45104;DHT22;30865;51.288;4.572;2023-08-20T14:48:17;34.60;76.10
45104;DHT22;30865;51.288;4.572;2023-08-20T14:50:43;35.10;76.70
45104;DHT22;30865;51.288;4.572;2023-08-20T14:53:09;35.40;75.30
45104;DHT22;30865;51.288;4.572;2023-08-20T14:55:34;35.40;74.40
45104;DHT22;30865;51.288;4.572;2023-08-20T14:58:03;35.80;73.20
45104;DHT22;30865;51.288;4.572;2023-08-20T15:00:32;35.30;73.30
45104;DHT22;30865;51.288;4.572;2023-08-20T15:02:57;35.20;74.20
45104;DHT22;30865;51.288;4.572;2023-08-20T15:05:23;35.10;74.20
45104;DHT22;30865;51.288;4.572;2023-08-20T15:07:48;34.70;74.30
45104;DHT22;30865;51.288;4.572;2023-08-20T15:10:14;34.30;75.80
45104;DHT22;30865;51.288;4.572;2023-08-20T15:12:39;34.00;76.60
45104;DHT22;30865;51.288;4.572;2023-08-20T15:15:05;34.10;78.20
45104;DHT22;30865;51.288;4.572;2023-08-20T15:17:31;34.10;80.10
45104;DHT22;30865;51.288;4.572;2023-08-20T15:19:58;34.30;80.30
45104;DHT22;30865;51.288;4.572;2023-08-20T15:22:23;34.40;80.10
45104;DHT22;30865;51.288;4.572;2023-08-20T15:24:49;34.00;80.70
45104;DHT22;30865;51.288;4.572;2023-08-20T15:27:16;35.50;78.80
45104;DHT22;30865;51.288;4.572;2023-08-20T15:29:42;36.40;75.10
45104;DHT22;30865;51.288;4.572;2023-08-20T15:32:08;36.40;73.50
45104;DHT22;30865;51.288;4.572;2023-08-20T15:34:34;37.10;70.40
45104;DHT22;30865;51.288;4.572;2023-08-20T15:36:59;37.30;67.30
45104;DHT22;30865;51.288;4.572;2023-08-20T15:39:25;37.10;67.10
45104;DHT22;30865;51.288;4.572;2023-08-20T15:41:50;36.20;65.80
45104;DHT22;30865;51.288;4.572;2023-08-20T15:44:16;36.00;67.80